createdAt,value
2023-03-04T00:00:29.425Z,98632.22
2023-03-04T00:03:16.560Z,98635.69
2023-03-04T00:05:43.593Z,98624.50
2023-03-04T00:08:10.826Z,98620.22
2023-03-04T00:10:37.759Z,98624.56
2023-03-04T00:13:05.076Z,98620.22
2023-03-04T00:15:32.065Z,98615.88
2023-03-04T00:17:59.250Z,98634.09
2023-03-04T00:20:26.146Z,98616.81
2023-03-04T00:22:53.518Z,98622.00
2023-03-04T00:25:20.487Z,98621.13
2023-03-04T00:27:47.912Z,98615.06
2023-03-04T00:30:14.903Z,98615.94
2023-03-04T00:32:42.156Z,98623.72
2023-03-04T00:35:09.417Z,98616.81
2023-03-04T00:37:36.605Z,98605.66
2023-03-04T00:40:03.922Z,98604.78
2023-03-04T00:42:31.123Z,98601.34
2023-03-04T00:44:58.054Z,98601.34
2023-03-04T00:47:25.366Z,98601.44
2023-03-04T00:49:52.518Z,98593.66
2023-03-04T00:52:19.892Z,98585.94
2023-03-04T00:54:46.751Z,98578.16
2023-03-04T00:57:14.051Z,98586.81
2023-03-04T00:59:40.969Z,98570.38
2023-03-04T01:02:08.246Z,98569.53
2023-03-04T01:04:35.212Z,98572.97
2023-03-04T01:07:02.482Z,98569.50
2023-03-04T01:09:29.431Z,98561.75
2023-03-04T01:11:56.801Z,98566.91
2023-03-04T01:14:23.844Z,98563.41
2023-03-04T01:16:51.419Z,98563.41
2023-03-04T01:19:19.052Z,98562.53
2023-03-04T01:21:46.316Z,98553.03
2023-03-04T01:24:13.306Z,98553.00
2023-03-04T01:26:40.572Z,98548.72
2023-03-04T01:29:07.588Z,98543.56
2023-03-04T01:31:34.922Z,98539.25
2023-03-04T01:34:01.939Z,98539.22
2023-03-04T01:36:29.108Z,98547.00
2023-03-04T01:38:56.270Z,98529.75
2023-03-04T01:41:25.892Z,98521.94
2023-03-04T01:43:56.730Z,98524.56
2023-03-04T01:46:24.474Z,98517.66
2023-03-04T01:48:51.439Z,98521.13
2023-03-04T01:51:21.186Z,98521.13
2023-03-04T01:53:53.326Z,98505.59
2023-03-04T01:56:28.484Z,98503.94
2023-03-04T01:59:23.976Z,98509.13
2023-03-04T02:01:54.054Z,98503.13
2023-03-04T02:04:24.117Z,98491.91
2023-03-04T02:06:52.225Z,98494.56
2023-03-04T02:09:20.046Z,98496.28
2023-03-04T02:11:49.263Z,98481.66
2023-03-04T02:14:17.340Z,98489.47
2023-03-04T02:16:44.817Z,98477.41
2023-03-04T02:19:28.382Z,98462.72
2023-03-04T02:21:55.591Z,98466.19
2023-03-04T02:24:39.671Z,98455.03
2023-03-04T02:27:07.201Z,98458.50
2023-03-04T02:29:34.227Z,98450.78
2023-03-04T02:32:01.510Z,98452.50
2023-03-04T02:34:34.404Z,98452.56
2023-03-04T02:37:03.006Z,98451.63
2023-03-04T02:39:41.435Z,98451.66
2023-03-04T02:42:09.465Z,98452.50
2023-03-04T02:44:41.838Z,98443.88
2023-03-04T02:47:11.033Z,98446.44
2023-03-04T02:49:40.014Z,98439.53
2023-03-04T02:52:10.335Z,98436.06
2023-03-04T02:54:38.902Z,98450.75
2023-03-04T02:57:09.237Z,98437.78
2023-03-04T02:59:37.848Z,98428.28
2023-03-04T03:02:05.633Z,98431.72
2023-03-04T03:04:33.563Z,98428.28
2023-03-04T03:07:00.820Z,98423.94
2023-03-04T03:09:27.801Z,98424.78
2023-03-04T03:11:54.956Z,98412.69
2023-03-04T03:14:21.801Z,98408.34
2023-03-04T03:16:49.019Z,98406.63
2023-03-04T03:19:15.880Z,98403.13
2023-03-04T03:21:43.047Z,98409.16
2023-03-04T03:24:10.101Z,98397.97
2023-03-04T03:26:37.408Z,98391.94
2023-03-04T03:29:04.367Z,98390.19
2023-03-04T03:31:31.568Z,98392.81
2023-03-04T03:33:58.483Z,98402.34
2023-03-04T03:36:25.728Z,98395.47
2023-03-04T03:38:52.733Z,98394.59
2023-03-04T03:41:19.944Z,98398.09
2023-03-04T03:43:46.757Z,98401.56
2023-03-04T03:46:13.989Z,98398.09
2023-03-04T03:48:40.880Z,98394.63
2023-03-04T03:51:08.098Z,98392.03
2023-03-04T03:53:34.961Z,98386.03
2023-03-04T03:56:02.214Z,98379.13
2023-03-04T03:58:29.056Z,98383.41
2023-03-04T04:00:58.312Z,98378.28
2023-03-04T04:03:26.026Z,98361.91
2023-03-04T04:05:53.352Z,98362.78
2023-03-04T04:08:20.396Z,98367.97
2023-03-04T04:10:47.687Z,98363.69
2023-03-04T04:13:14.616Z,98368.03
2023-03-04T04:15:41.824Z,98363.72
2023-03-04T04:18:09.670Z,98360.34
2023-03-04T04:20:36.944Z,98362.94
2023-03-04T04:23:04.065Z,98363.81
2023-03-04T04:25:31.388Z,98367.25
2023-03-04T04:27:58.255Z,98363.81
2023-03-04T04:30:25.784Z,98363.81
2023-03-04T04:32:52.712Z,98355.22
2023-03-04T04:35:20.512Z,98351.78
2023-03-04T04:37:47.481Z,98348.28
2023-03-04T04:40:15.190Z,98338.81
2023-03-04T04:42:42.104Z,98341.41
2023-03-04T04:45:09.650Z,98337.97
2023-03-04T04:47:36.789Z,98333.69
2023-03-04T04:50:04.619Z,98322.47
2023-03-04T04:52:31.500Z,98306.97
2023-03-04T04:54:58.756Z,98312.16
2023-03-04T04:57:25.837Z,98310.41
2023-03-04T04:59:53.000Z,98308.72
2023-03-04T05:02:20.440Z,98301.00
2023-03-04T05:04:47.692Z,98316.53
2023-03-04T05:07:14.610Z,98303.59
2023-03-04T05:09:41.807Z,98311.38
2023-03-04T05:12:08.756Z,98320.09
2023-03-04T05:14:35.913Z,98317.50
2023-03-04T05:17:02.857Z,98316.66
2023-03-04T05:19:30.060Z,98320.13
2023-03-04T05:21:56.936Z,98324.41
2023-03-04T05:24:24.194Z,98317.53
2023-03-04T05:26:51.073Z,98320.13
2023-03-04T05:29:18.227Z,98322.66
2023-03-04T05:31:45.102Z,98318.34
2023-03-04T05:34:12.279Z,98321.75
2023-03-04T05:36:39.272Z,98311.31
2023-03-04T05:39:06.556Z,98317.31
2023-03-04T05:41:33.425Z,98317.25
2023-03-04T05:44:00.667Z,98310.28
2023-03-04T05:46:27.651Z,98308.53
2023-03-04T05:48:55.110Z,98313.66
2023-03-04T05:51:23.214Z,98305.84
2023-03-04T05:53:50.626Z,98289.34
2023-03-04T05:56:19.996Z,98289.34
2023-03-04T05:58:47.764Z,98277.13
2023-03-04T06:01:15.629Z,98271.78
2023-03-04T06:03:43.658Z,98271.59
2023-03-04T06:06:10.892Z,98259.00
2023-03-04T06:08:37.790Z,98246.94
2023-03-04T06:11:05.768Z,98257.44
2023-03-04T06:13:33.640Z,98275.75
2023-03-04T06:16:01.322Z,98280.84
2023-03-04T06:18:29.463Z,98287.91
2023-03-04T06:21:01.981Z,98274.38
2023-03-04T06:23:30.343Z,98274.53
2023-03-04T06:25:59.561Z,98274.94
2023-03-04T06:28:26.821Z,98291.47
2023-03-04T06:30:56.060Z,98302.03
2023-03-04T06:33:23.546Z,98302.81
2023-03-04T06:35:55.041Z,98296.09
2023-03-04T06:38:22.019Z,98296.03
2023-03-04T06:40:49.345Z,98284.09
2023-03-04T06:43:16.281Z,98285.47
2023-03-04T06:45:43.503Z,98278.69
2023-03-04T06:48:10.959Z,98288.47
2023-03-04T06:50:40.748Z,98274.56
2023-03-04T06:53:07.776Z,98285.22
2023-03-04T06:55:35.024Z,98292.41
2023-03-04T06:58:01.885Z,98284.84
2023-03-04T07:00:29.128Z,98292.03
2023-03-04T07:02:56.039Z,98285.28
2023-03-04T07:05:23.273Z,98294.16
2023-03-04T07:07:50.706Z,98292.03
2023-03-04T07:10:19.213Z,98294.28
2023-03-04T07:12:46.479Z,98303.97
2023-03-04T07:15:13.937Z,98288.03
2023-03-04T07:17:41.057Z,98314.22
2023-03-04T07:20:09.830Z,98315.34
2023-03-04T07:22:36.882Z,98316.31
2023-03-04T07:25:05.362Z,98315.97
2023-03-04T07:27:32.313Z,98317.34
2023-03-04T07:29:59.662Z,98308.94
2023-03-04T07:32:27.025Z,98307.28
2023-03-04T07:34:54.347Z,98310.97
2023-03-04T07:37:21.240Z,98322.31
2023-03-04T07:39:48.438Z,98309.19
2023-03-04T07:42:15.352Z,98320.75
2023-03-04T07:44:42.548Z,98325.94
2023-03-04T07:47:09.456Z,98332.50
2023-03-04T07:49:36.913Z,98319.91
2023-03-04T07:52:06.996Z,98322.53
2023-03-04T07:54:34.344Z,98321.00
2023-03-04T07:57:01.265Z,98319.88
2023-03-04T07:59:28.482Z,98316.44
2023-03-04T08:01:55.362Z,98318.56
2023-03-04T08:04:22.626Z,98323.81
2023-03-04T08:06:49.590Z,98316.03
2023-03-04T08:09:16.841Z,98317.19
2023-03-04T08:11:44.161Z,98308.13
2023-03-04T08:14:14.955Z,98305.22
2023-03-04T08:16:42.006Z,98258.78
2023-03-04T08:19:10.762Z,98306.63
2023-03-04T08:21:37.968Z,98280.69
2023-03-04T08:24:08.891Z,98304.16
2023-03-04T08:26:41.389Z,98302.00
2023-03-04T08:29:11.444Z,98307.78
2023-03-04T08:31:39.576Z,98301.03
2023-03-04T08:34:08.623Z,98305.41
2023-03-04T08:36:35.986Z,98297.88
2023-03-04T08:39:04.679Z,98281.72
2023-03-04T08:41:31.831Z,98295.47
2023-03-04T08:44:00.173Z,98286.84
2023-03-04T08:46:27.554Z,98288.44
2023-03-04T08:48:55.222Z,98297.22
2023-03-04T08:51:22.503Z,98286.81
2023-03-04T08:53:49.721Z,98286.41
2023-03-04T08:56:17.071Z,98280.06
2023-03-04T08:58:44.597Z,98282.28
2023-03-04T09:01:13.544Z,98289.97
2023-03-04T09:03:41.246Z,98281.84
2023-03-04T09:06:09.250Z,98268.25
2023-03-04T09:08:37.605Z,98263.44
2023-03-04T09:11:07.436Z,98271.72
2023-03-04T09:13:36.913Z,98266.34
2023-03-04T09:16:16.933Z,98270.88
2023-03-04T09:18:47.645Z,98277.38
2023-03-04T09:21:14.915Z,98273.94
2023-03-04T09:23:42.242Z,98274.56
2023-03-04T09:26:27.806Z,98271.25
2023-03-04T09:28:57.795Z,98278.63
2023-03-04T09:31:26.368Z,98266.81
2023-03-04T09:33:56.029Z,98277.41
2023-03-04T09:36:23.289Z,98268.19
2023-03-04T09:38:50.773Z,98267.91
2023-03-04T09:41:52.985Z,98280.22
2023-03-04T09:44:28.768Z,98279.38
2023-03-04T09:47:00.221Z,98285.09
2023-03-04T09:49:27.924Z,98279.47
2023-03-04T09:52:01.977Z,98282.84
2023-03-04T09:54:59.707Z,98277.31
2023-03-04T09:57:38.651Z,98270.75
2023-03-04T10:00:24.444Z,98261.41
2023-03-04T10:03:13.691Z,98258.22
2023-03-04T10:06:02.341Z,98242.59
2023-03-04T10:08:45.626Z,98254.63
2023-03-04T10:11:23.718Z,98256.47
2023-03-04T10:14:38.847Z,98251.78
2023-03-04T10:17:13.935Z,98252.56
2023-03-04T10:19:43.802Z,98245.03
2023-03-04T10:22:31.840Z,98250.75
2023-03-04T10:25:06.161Z,98246.75
2023-03-04T10:27:33.585Z,98248.16
2023-03-04T10:30:00.963Z,98238.94
2023-03-04T10:32:28.277Z,98239.44
2023-03-04T10:34:55.197Z,98234.47
2023-03-04T10:37:22.507Z,98234.00
2023-03-04T10:39:50.687Z,98230.25
2023-03-04T10:42:19.024Z,98236.38
2023-03-04T10:44:58.989Z,98232.97
2023-03-04T10:47:32.814Z,98224.88
2023-03-04T10:50:01.594Z,98227.50
2023-03-04T10:52:53.344Z,98219.91
2023-03-04T10:55:25.079Z,98218.66
2023-03-04T10:57:57.779Z,98193.63
2023-03-04T11:00:34.894Z,98216.84
2023-03-04T11:03:29.692Z,98220.66
2023-03-04T11:06:05.918Z,98210.28
2023-03-04T11:08:33.198Z,98218.22
2023-03-04T11:11:00.148Z,98221.09
2023-03-04T11:13:27.683Z,98203.41
2023-03-04T11:16:00.934Z,98201.19
2023-03-04T11:18:54.063Z,98206.84
2023-03-04T11:21:27.265Z,98209.69
2023-03-04T11:24:02.655Z,98196.41
2023-03-04T11:26:47.598Z,98210.16
2023-03-04T11:29:37.909Z,98204.38
2023-03-04T11:32:14.330Z,98211.19
2023-03-04T11:34:48.920Z,98212.34
2023-03-04T11:37:26.848Z,98198.97
2023-03-04T11:39:59.602Z,98213.56
2023-03-04T11:42:47.269Z,98207.22
2023-03-04T11:45:28.181Z,98205.78
2023-03-04T11:48:09.039Z,98192.91
2023-03-04T11:50:50.614Z,98201.19
2023-03-04T11:53:32.666Z,98193.31
2023-03-04T11:56:10.700Z,98185.22
2023-03-04T11:59:04.706Z,98195.91
2023-03-04T12:02:13.566Z,98191.72
2023-03-04T12:04:43.159Z,98186.56
2023-03-04T12:07:13.191Z,98193.44
2023-03-04T12:10:06.058Z,98194.22
2023-03-04T12:13:08.545Z,98180.22
2023-03-04T12:15:50.040Z,98179.50
2023-03-04T12:18:36.648Z,98184.41
2023-03-04T12:21:23.444Z,98178.56
2023-03-04T12:24:09.320Z,98187.06
2023-03-04T12:26:57.667Z,98191.00
2023-03-04T12:29:30.916Z,98190.13
2023-03-04T12:32:10.031Z,98192.47
2023-03-04T12:34:47.604Z,98184.91
2023-03-04T12:37:36.516Z,98186.91
2023-03-04T12:40:07.109Z,98176.06
2023-03-04T12:43:01.179Z,98190.13
2023-03-04T12:45:45.608Z,98187.63
2023-03-04T12:48:39.498Z,98179.38
2023-03-04T12:51:36.420Z,98187.56
2023-03-04T12:54:16.993Z,98197.59
2023-03-04T12:57:13.708Z,98194.00
2023-03-04T12:59:45.248Z,98195.28
2023-03-04T13:02:54.250Z,98198.53
2023-03-04T13:05:30.203Z,98173.47
2023-03-04T13:08:11.343Z,98205.66
2023-03-04T13:10:38.358Z,98204.44
2023-03-04T13:13:05.880Z,98210.72
2023-03-04T13:15:39.611Z,98214.59
2023-03-04T13:18:33.539Z,98201.97
2023-03-04T13:21:13.664Z,98208.16
2023-03-04T13:23:42.413Z,98194.34
2023-03-04T13:26:18.616Z,98193.97
2023-03-04T13:28:46.191Z,98198.63
2023-03-04T13:31:17.026Z,98186.63
2023-03-04T13:33:45.931Z,98199.66
2023-03-04T13:36:31.044Z,98198.16
2023-03-04T13:39:21.062Z,98182.00
2023-03-04T13:41:50.157Z,98187.13
2023-03-04T13:44:44.779Z,98185.34
2023-03-04T13:47:18.741Z,98185.25
2023-03-04T13:49:46.124Z,98174.16
2023-03-04T13:52:43.372Z,98178.38
2023-03-04T13:55:35.035Z,98178.50
2023-03-04T13:58:13.463Z,98169.81
2023-03-04T14:00:48.831Z,98179.47
2023-03-04T14:03:21.794Z,98175.16
2023-03-04T14:06:08.604Z,98175.84
2023-03-04T14:08:35.502Z,98167.47
2023-03-04T14:11:02.846Z,98165.00
2023-03-04T14:13:29.983Z,98137.19
2023-03-04T14:15:59.792Z,98160.72
2023-03-04T14:18:28.253Z,98157.19
2023-03-04T14:20:59.211Z,98146.97
2023-03-04T14:23:26.112Z,98144.38
2023-03-04T14:26:23.597Z,98160.09
2023-03-04T14:28:52.920Z,98154.84
2023-03-04T14:31:24.149Z,98138.41
2023-03-04T14:34:02.065Z,98148.88
2023-03-04T14:36:32.951Z,98145.53
2023-03-04T14:39:02.979Z,98130.94
2023-03-04T14:41:38.070Z,98143.06
2023-03-04T14:44:48.510Z,98131.81
2023-03-04T14:47:27.842Z,98142.22
2023-03-04T14:49:55.149Z,98153.50
2023-03-04T14:52:39.287Z,98152.56
2023-03-04T14:55:15.092Z,98139.63
2023-03-04T14:57:44.552Z,98131.91
2023-03-04T15:00:20.236Z,98136.19
2023-03-04T15:02:52.854Z,98146.59
2023-03-04T15:05:26.379Z,98133.59
2023-03-04T15:07:56.745Z,98131.81
2023-03-04T15:10:41.577Z,98130.94
2023-03-04T15:13:09.781Z,98136.94
2023-03-04T15:15:45.377Z,98135.09
2023-03-04T15:18:27.228Z,98135.13
2023-03-04T15:20:57.225Z,98147.28
2023-03-04T15:23:25.581Z,98117.06
2023-03-04T15:25:58.543Z,98130.13
2023-03-04T15:28:27.204Z,98136.28
2023-03-04T15:30:54.547Z,98124.84
2023-03-04T15:33:22.010Z,98125.88
2023-03-04T15:35:56.335Z,98128.41
2023-03-04T15:38:24.337Z,98111.13
2023-03-04T15:40:54.274Z,98102.47
2023-03-04T15:43:23.393Z,98101.66
2023-03-04T15:45:51.783Z,98102.53
2023-03-04T15:48:19.998Z,98108.56
2023-03-04T15:50:55.852Z,98093.91
2023-03-04T15:53:33.059Z,98080.88
2023-03-04T15:56:01.079Z,98099.16
2023-03-04T15:58:29.733Z,98107.75
2023-03-04T16:00:56.719Z,98092.09
2023-03-04T16:03:23.988Z,98114.69
2023-03-04T16:05:53.126Z,98104.34
2023-03-04T16:08:22.447Z,98106.09
2023-03-04T16:10:50.297Z,98114.78
2023-03-04T16:13:20.183Z,98116.47
2023-03-04T16:15:47.617Z,98109.63
2023-03-04T16:18:15.999Z,98119.09
2023-03-04T16:20:48.341Z,98089.72
2023-03-04T16:23:21.137Z,98109.72
2023-03-04T16:25:50.728Z,98108.84
2023-03-04T16:28:18.088Z,98106.25
2023-03-04T16:30:45.262Z,98099.25
2023-03-04T16:33:12.679Z,98110.47
2023-03-04T16:35:39.995Z,98105.22
2023-03-04T16:38:28.637Z,98099.16
2023-03-04T16:40:57.063Z,98097.34
2023-03-04T16:43:25.194Z,98100.00
2023-03-04T16:45:52.455Z,98089.59
2023-03-04T16:48:20.475Z,98099.09
2023-03-04T16:50:47.748Z,98092.94
2023-03-04T16:53:36.032Z,98080.78
2023-03-04T16:56:21.321Z,98081.53
2023-03-04T16:58:48.925Z,98048.50
2023-03-04T17:01:26.085Z,98044.44
2023-03-04T17:03:54.475Z,98041.94
2023-03-04T17:06:22.668Z,98027.31
2023-03-04T17:08:49.961Z,98030.75
2023-03-04T17:11:20.232Z,98030.97
2023-03-04T17:13:48.176Z,98040.59
2023-03-04T17:16:15.758Z,98042.47
2023-03-04T17:18:45.784Z,98035.63
2023-03-04T17:21:16.507Z,98045.22
2023-03-04T17:23:43.873Z,98040.09
2023-03-04T17:26:10.929Z,98046.16
2023-03-04T17:28:38.344Z,98039.22
2023-03-04T17:31:12.848Z,98039.25
2023-03-04T17:33:40.122Z,98032.44
2023-03-04T17:36:09.910Z,98029.94
2023-03-04T17:38:38.880Z,98044.66
2023-03-04T17:41:07.904Z,98059.47
2023-03-04T17:43:35.886Z,98050.78
2023-03-04T17:46:07.863Z,98056.81
2023-03-04T17:48:35.464Z,98060.31
2023-03-04T17:51:02.486Z,98053.28
2023-03-04T17:53:29.785Z,98065.19
2023-03-04T17:56:02.260Z,98062.53
2023-03-04T17:58:31.637Z,98063.31
2023-03-04T18:01:06.785Z,98062.38
2023-03-04T18:03:33.982Z,98044.94
2023-03-04T18:06:00.945Z,98037.00
2023-03-04T18:08:28.169Z,98048.13
2023-03-04T18:10:55.145Z,98034.13
2023-03-04T18:13:22.324Z,98050.38
2023-03-04T18:15:49.489Z,98045.94
2023-03-04T18:18:16.729Z,98053.53
2023-03-04T18:20:43.619Z,98052.53
2023-03-04T18:23:10.820Z,98053.38
2023-03-04T18:25:37.772Z,98040.38
2023-03-04T18:28:05.389Z,98048.97
2023-03-04T18:30:32.542Z,98049.75
2023-03-04T18:33:00.240Z,98044.53
2023-03-04T18:35:27.215Z,98043.66
2023-03-04T18:37:54.553Z,98033.22
2023-03-04T18:40:21.427Z,98043.56
2023-03-04T18:42:48.724Z,98054.78
2023-03-04T18:45:17.216Z,98051.22
2023-03-04T18:47:48.851Z,98050.34
2023-03-04T18:50:16.343Z,98021.69
2023-03-04T18:52:44.507Z,98027.81
2023-03-04T18:55:11.520Z,98037.22
2023-03-04T18:57:45.945Z,98027.78
2023-03-04T19:00:20.549Z,98046.84
2023-03-04T19:02:52.621Z,98048.56
2023-03-04T19:05:30.621Z,98041.59
2023-03-04T19:07:57.919Z,98044.91
2023-03-04T19:10:25.930Z,98044.00
2023-03-04T19:12:53.168Z,98057.63
2023-03-04T19:15:20.275Z,98040.09
2023-03-04T19:17:47.507Z,98047.88
2023-03-04T19:20:15.771Z,98053.84
2023-03-04T19:22:43.553Z,98045.03
2023-03-04T19:25:12.705Z,98048.41
2023-03-04T19:27:40.020Z,98065.59
2023-03-04T19:30:07.729Z,98068.13
2023-03-04T19:32:35.271Z,98061.06
2023-03-04T19:35:02.270Z,98072.25
2023-03-04T19:37:29.525Z,98069.69
2023-03-04T19:39:56.629Z,98086.09
2023-03-04T19:42:24.352Z,98086.13
2023-03-04T19:44:51.318Z,98095.59
2023-03-04T19:47:18.653Z,98097.41
2023-03-04T19:49:45.730Z,98106.09
2023-03-04T19:52:12.884Z,98120.00
2023-03-04T19:54:39.944Z,98121.88
2023-03-04T19:57:07.192Z,98127.22
2023-03-04T19:59:35.190Z,98136.84
2023-03-04T20:02:03.070Z,98139.44
2023-03-04T20:04:30.059Z,98135.25
2023-03-04T20:06:57.407Z,98140.94
2023-03-04T20:09:24.305Z,98147.09
2023-03-04T20:11:58.239Z,98157.63
2023-03-04T20:14:27.562Z,98155.91
2023-03-04T20:17:00.795Z,98160.56
2023-03-04T20:19:27.905Z,98158.16
2023-03-04T20:21:56.419Z,98162.75
2023-03-04T20:24:24.593Z,98158.56
2023-03-04T20:26:52.380Z,98157.84
2023-03-04T20:29:19.413Z,98163.88
2023-03-04T20:31:46.788Z,98161.47
2023-03-04T20:34:14.714Z,98157.25
2023-03-04T20:36:41.923Z,98163.50
2023-03-04T20:39:27.606Z,98164.44
2023-03-04T20:41:59.251Z,98151.59
2023-03-04T20:44:26.706Z,98165.47
2023-03-04T20:46:53.997Z,98176.84
2023-03-04T20:49:27.083Z,98176.06
2023-03-04T20:51:59.599Z,98167.38
2023-03-04T20:54:26.453Z,98169.97
2023-03-04T20:56:53.690Z,98169.16
2023-03-04T20:59:20.692Z,98172.66
2023-03-04T21:01:48.191Z,98174.38
2023-03-04T21:04:15.346Z,98172.75
2023-03-04T21:06:43.756Z,98169.38
2023-03-04T21:09:14.735Z,98177.91
2023-03-04T21:11:42.914Z,98177.03
2023-03-04T21:14:25.824Z,98168.38
2023-03-04T21:16:55.128Z,98175.28
2023-03-04T21:19:25.602Z,98167.50
2023-03-04T21:21:54.184Z,98164.06
2023-03-04T21:24:24.986Z,98157.97
2023-03-04T21:26:52.515Z,98166.59
2023-03-04T21:29:22.170Z,98153.69
2023-03-04T21:31:52.981Z,98154.63
2023-03-04T21:34:21.908Z,98151.22
2023-03-04T21:36:49.220Z,98162.63
2023-03-04T21:39:18.915Z,98155.66
2023-03-04T21:41:46.674Z,98166.09
2023-03-04T21:44:23.070Z,98158.34
2023-03-04T21:46:57.161Z,98169.53
2023-03-04T21:49:24.497Z,98168.75
2023-03-04T21:51:51.777Z,98174.78
2023-03-04T21:54:18.922Z,98169.72
2023-03-04T21:56:46.230Z,98163.59
2023-03-04T21:59:14.382Z,98163.63
2023-03-04T22:01:44.085Z,98165.38
2023-03-04T22:04:11.140Z,98166.22
2023-03-04T22:06:40.089Z,98170.63
2023-03-04T22:09:08.277Z,98178.41
2023-03-04T22:11:35.479Z,98181.03
2023-03-04T22:14:03.290Z,98157.69
2023-03-04T22:16:31.841Z,98174.09
2023-03-04T22:18:59.676Z,98168.81
2023-03-04T22:21:26.941Z,98176.59
2023-03-04T22:23:53.864Z,98174.91
2023-03-04T22:26:29.985Z,98173.13
2023-03-04T22:28:57.337Z,98174.09
2023-03-04T22:31:30.934Z,98180.19
2023-03-04T22:34:02.865Z,98175.88
2023-03-04T22:36:31.921Z,98181.09
2023-03-04T22:38:59.198Z,98187.09
2023-03-04T22:41:26.400Z,98188.81
2023-03-04T22:43:53.602Z,98205.16
2023-03-04T22:46:24.752Z,98207.00
2023-03-04T22:48:53.704Z,98204.53
2023-03-04T22:51:22.164Z,98212.44
2023-03-04T22:53:50.572Z,98214.38
2023-03-04T22:56:19.255Z,98214.56
2023-03-04T22:58:47.071Z,98232.03
2023-03-04T23:01:16.134Z,98232.25
2023-03-04T23:03:45.102Z,98240.19
2023-03-04T23:06:15.421Z,98241.13
2023-03-04T23:08:44.591Z,98240.31
2023-03-04T23:11:15.529Z,98234.34
2023-03-04T23:13:42.905Z,98235.25
2023-03-04T23:16:12.101Z,98240.47
2023-03-04T23:18:40.705Z,98242.28
2023-03-04T23:21:09.913Z,98244.06
2023-03-04T23:23:37.445Z,98245.84
2023-03-04T23:26:05.371Z,98247.59
2023-03-04T23:28:32.688Z,98249.34
2023-03-04T23:31:00.288Z,98243.25
2023-03-04T23:33:27.299Z,98251.94
2023-03-04T23:35:54.519Z,98244.16
2023-03-04T23:38:21.427Z,98256.22
2023-03-04T23:40:48.624Z,98255.34
2023-03-04T23:43:15.591Z,98262.31
2023-03-04T23:45:42.885Z,98262.31
2023-03-04T23:48:09.844Z,98267.50
2023-03-04T23:50:38.288Z,98270.97
2023-03-04T23:53:05.213Z,98257.19
2023-03-04T23:55:34.322Z,98277.13
2023-03-04T23:58:01.254Z,98269.41
